Latest Weather Observations for Williamson

IDQ60801

Issued at 2:32 pm EST Friday 28 August 2015 (issued every 30 minutes, with the page automatically refreshed every 10 minutes)

About weather observations | Map of weather stations | Latest weather observations for QLD | Other Formats
Station Details ID: 033195 Name: WILLIAMSON Lat: -22.47 Lon: 150.18 Height: 27.6 m
Data from the previous 72 hours. | See also: Recent months at Williamson
Date/Time
EST
Temp
°C
App
Temp
°C
Dew
Point
Rel
Hum
%
Delta-T
°C
Wind Press
QNH
hPa
Press
MSL
hPa
Rain
since 9 am
mm
Dir
 
Spd
km/h
Gust
km/h
Spd
kts
Gust
kts
28/02:30pm 25.3 24.3 15.6 55 5.9 NE 15 24 8 13 1017.5 1017.4 0.0
28/02:00pm 26.4 24.9 14.2 47 7.3 NE 15 24 8 13 1017.9 1017.8 0.0
28/01:30pm 26.7 25.7 14.5 47 7.3 NE 13 20 7 11 1018.2 1018.1 0.0
28/01:00pm 27.4 27.6 15.7 48 7.2 NNE 9 20 5 11 1018.8 1018.7 0.0
28/12:30pm 25.9 25.7 15.6 53 6.3 NNE 11 17 6 9 1019.2 1019.1 0.0
28/12:00pm 25.0 25.2 14.8 53 6.1 SE 7 11 4 6 1019.8 1019.7 0.0
28/11:30am 26.1 26.4 14.6 49 6.9 NE 6 11 3 6 1020.3 1020.2 0.0
28/11:00am 24.7 24.8 14.5 53 6.0 SSE 7 17 4 9 1020.9 1020.8 0.0
28/10:30am 24.6 24.4 14.7 54 5.9 SSW 9 20 5 11 1021.4 1021.3 0.0
28/10:00am 24.1 24.5 15.3 58 5.3 SSW 7 15 4 8 1021.7 1021.6 0.0
28/09:30am 22.9 23.8 16.0 65 4.2 S 6 13 3 7 1021.8 1021.7 0.0
28/09:00am 22.6 23.3 16.2 67 3.9 S 7 13 4 7 1022.0 1021.9 0.0
28/08:30am 21.5 22.1 16.9 75 2.8 S 9 15 5 8 1021.9 1021.8 0.0
28/08:00am 19.3 20.4 17.1 87 1.3 S 7 11 4 6 1021.4 1021.3 0.0
28/07:30am 17.0 17.7 16.0 94 0.6 SSE 7 9 4 5 1021.3 1021.2 0.0
28/07:00am 15.9 16.5 15.3 96 0.3 E 6 9 3 5 1021.0 1020.9 0.0
28/06:30am 15.1 16.6 14.6 97 0.3 CALM 0 0 0 0 1021.1 1021.0 0.0
28/06:00am 14.9 15.2 14.6 98 0.2 SSE 6 9 3 5 1020.4 1020.3 0.0
28/05:30am 14.6 14.8 14.1 97 0.3 S 6 7 3 4 1019.9 1019.8 0.0
28/05:00am 14.6 15.8 13.8 95 0.4 CALM 0 0 0 0 1019.5 1019.4 0.0
28/04:30am 14.8 16.1 14.0 95 0.5 CALM 0 0 0 0 1019.3 1019.2 0.0
28/04:00am 15.1 16.4 14.1 94 0.6 CALM 0 0 0 0 1019.1 1019.0 0.0
28/03:30am 15.6 16.4 14.8 95 0.5 ENE 4 7 2 4 1019.3 1019.2 0.0
28/03:00am 16.3 18.2 15.8 97 0.3 CALM 0 0 0 0 1019.6 1019.5 0.0
28/02:30am 15.6 17.1 14.6 94 0.6 CALM 0 0 0 0 1019.5 1019.4 0.0
28/02:00am 16.6 17.8 16.0 96 0.4 S 4 7 2 4 1019.7 1019.6 0.0
28/01:30am 16.5 17.4 16.0 97 0.3 SSE 6 9 3 5 1019.9 1019.8 0.0
28/01:00am 16.8 18.9 16.3 97 0.3 CALM 0 0 0 0 1020.1 1020.0 0.0
28/12:30am 16.9 18.8 15.8 93 0.6 CALM 0 0 0 0 1020.3 1020.2 0.0
28/12:00am 17.2 19.2 16.1 93 0.6 CALM 0 0 0 0 1020.5 1020.4 0.0
 
Date/Time
EST
Temp
°C
App
Temp
°C
Dew
Point
Rel
Hum
%
Delta-T
°C
Wind Press
QNH
hPa
Press
MSL
hPa
Rain
since 9 am
mm
Dir
 
Spd
km/h
Gust
km/h
Spd
kts
Gust
kts
27/11:30pm 17.6 19.6 16.1 91 0.9 CALM 0 0 0 0 1020.6 1020.5 0.0
27/11:00pm 18.2 20.2 16.0 87 1.3 CALM 0 0 0 0 1020.7 1020.6 0.0
27/10:30pm 19.6 21.5 17.7 89 1.2 ENE 4 7 2 4 1020.9 1020.8 0.0
27/10:00pm 19.9 21.0 17.9 88 1.2 ENE 9 13 5 7 1021.0 1020.9 0.0
27/09:30pm 20.0 21.5 18.0 88 1.2 ENE 7 13 4 7 1021.2 1021.1 0.0
27/09:00pm 20.1 21.5 17.9 87 1.4 NE 7 11 4 6 1021.2 1021.1 0.0
27/08:30pm 20.2 21.5 17.6 85 1.6 NE 7 9 4 5 1021.1 1021.0 0.0
27/08:00pm 20.4 21.7 17.0 81 2.1 NNE 6 9 3 5 1020.9 1020.8 0.0
27/07:30pm 20.8 21.3 16.6 77 2.5 ENE 9 15 5 8 1020.5 1020.4 0.0
27/07:00pm 21.2 21.6 16.4 74 2.9 NE 9 15 5 8 1020.2 1020.1 0.0
27/06:30pm 21.4 22.1 17.0 76 2.7 NE 9 17 5 9 1019.8 1019.7 0.0
27/06:00pm 22.1 22.8 17.0 73 3.1 NNE 9 17 5 9 1019.5 1019.4 0.0
27/05:30pm 23.0 23.4 16.3 66 4.1 NNE 9 13 5 7 1019.2 1019.1 0.0
27/05:00pm 23.8 22.7 15.3 59 5.1 NE 15 20 8 11 1018.9 1018.8 0.0
27/04:30pm 25.1 23.9 13.9 49 6.6 NNE 13 19 7 10 1018.5 1018.4 0.0
27/04:00pm 25.9 24.5 13.4 46 7.3 NE 13 22 7 12 1018.4 1018.3 0.0
27/03:30pm 26.0 24.3 13.5 46 7.4 NE 15 24 8 13 1018.6 1018.5 0.0
27/03:00pm 26.5 24.7 12.2 41 8.2 NNE 13 24 7 13 1018.6 1018.5 0.0
27/02:30pm 26.2 24.3 11.9 41 8.2 NNE 13 20 7 11 1018.6 1018.5 0.0
27/02:00pm 26.4 24.4 12.8 43 7.9 NNE 15 24 8 13 1018.7 1018.6 0.0
27/01:30pm 26.1 24.2 12.9 44 7.7 NNE 15 26 8 14 1018.9 1018.8 0.0
27/01:00pm 25.4 24.2 13.9 49 6.8 NNE 13 19 7 10 1019.4 1019.3 0.0
27/12:30pm 25.3 25.0 14.4 50 6.5 NNE 9 15 5 8 1020.0 1019.9 0.0
27/12:00pm 25.8 25.5 14.3 49 6.8 NNE 9 20 5 11 1020.6 1020.5 0.0
27/11:30am 25.5 24.5 15.5 54 6.1 NNE 15 24 8 13 1020.8 1020.7 0.0
27/11:00am 25.2 23.9 14.9 52 6.2 NNE 15 26 8 14 1021.1 1021.0 0.0
27/10:30am 24.9 23.9 14.7 53 6.1 NNE 13 22 7 12 1021.5 1021.4 0.0
27/10:00am 24.5 24.5 16.2 60 5.1 NNE 11 19 6 10 1021.8 1021.7 0.0
27/09:30am 23.7 23.6 16.0 62 4.7 NNE 11 19 6 10 1022.2 1022.1 0.0
27/09:00am 23.4 23.7 16.9 67 4.0 NE 11 15 6 8 1022.3 1022.2 0.0
27/08:30am 22.9 24.4 17.6 72 3.3 NE 6 11 3 6 1022.1 1022.0 0.0
27/08:00am 20.0 22.5 17.2 84 1.7 CALM 0 6 0 3 1021.9 1021.8 0.0
27/07:30am 17.0 19.2 16.4 96 0.4 CALM 0 0 0 0 1021.5 1021.4 0.0
27/07:00am 14.2 15.4 13.7 97 0.3 CALM 0 0 0 0 1020.9 1020.8 0.0
27/06:30am 13.4 14.3 12.9 97 0.3 CALM 0 0 0 0 1020.6 1020.5 0.0
27/06:00am 13.6 14.6 13.1 97 0.3 CALM 0 0 0 0 1020.4 1020.3 0.0
27/05:30am 13.7 14.7 13.1 96 0.3 CALM 0 0 0 0 1020.2 1020.1 0.0
27/05:00am 14.7 15.9 13.9 95 0.4 CALM 0 0 0 0 1019.9 1019.8 0.0
27/04:30am 14.9 16.2 14.1 95 0.5 CALM 0 0 0 0 1019.7 1019.6 0.0
27/04:00am 16.3 18.3 16.0 98 0.2 CALM 0 6 0 3 1019.8 1019.7 0.0
27/03:30am 16.9 17.4 16.6 98 0.2 SSE 9 13 5 7 1019.8 1019.7 0.0
27/03:00am 15.9 16.4 15.6 98 0.2 S 7 11 4 6 1020.2 1020.1 0.0
27/02:30am 15.0 16.4 14.4 96 0.3 CALM 0 7 0 4 1020.2 1020.1 0.0
27/02:00am 15.2 16.2 14.4 95 0.5 S 2 7 1 4 1020.5 1020.4 0.0
27/01:30am 15.4 16.9 14.6 95 0.5 CALM 0 0 0 0 1020.5 1020.4 0.0
27/01:00am 15.6 17.1 14.6 94 0.6 CALM 0 0 0 0 1020.6 1020.5 0.0
27/12:30am 15.9 17.5 14.9 94 0.6 CALM 0 0 0 0 1020.9 1020.8 0.0
27/12:00am 16.3 18.0 15.3 94 0.6 CALM 0 0 0 0 1021.2 1021.1 0.0
 
Date/Time
EST
Temp
°C
App
Temp
°C
Dew
Point
Rel
Hum
%
Delta-T
°C
Wind Press
QNH
hPa
Press
MSL
hPa
Rain
since 9 am
mm
Dir
 
Spd
km/h
Gust
km/h
Spd
kts
Gust
kts
26/11:30pm 16.4 17.1 15.6 95 0.5 NE 6 6 3 3 1021.2 1021.1 0.0
26/11:00pm 16.8 17.5 15.7 93 0.6 NE 6 7 3 4 1021.5 1021.4 0.0
26/10:30pm 17.4 19.1 16.3 93 0.7 ENE 2 6 1 3 1021.6 1021.5 0.0
26/10:00pm 18.1 20.5 16.9 93 0.7 CALM 0 0 0 0 1021.6 1021.5 0.0
26/09:30pm 18.5 20.4 16.7 89 1.1 ENE 2 6 1 3 1021.5 1021.4 0.0
26/09:00pm 19.3 20.7 17.3 88 1.2 NE 6 9 3 5 1021.2 1021.1 0.0
26/08:30pm 20.0 21.4 17.8 87 1.4 NE 7 11 4 6 1021.2 1021.1 0.0
26/08:00pm 20.1 21.6 17.7 86 1.5 NNE 6 9 3 5 1020.8 1020.7 0.0
26/07:30pm 20.3 21.5 17.3 83 1.8 NNE 7 11 4 6 1020.7 1020.6 0.0
26/07:00pm 20.7 21.5 17.3 81 2.1 NE 9 15 5 8 1020.3 1020.2 0.0
26/06:30pm 21.1 21.9 17.3 79 2.3 NNE 9 13 5 7 1020.1 1020.0 0.0
26/06:00pm 21.5 22.2 17.1 76 2.7 NNE 9 17 5 9 1019.8 1019.7 0.0
26/05:30pm 22.1 21.9 16.8 72 3.2 NE 13 22 7 12 1019.4 1019.3 0.0
26/05:00pm 22.8 21.8 16.6 68 3.8 NNE 17 24 9 13 1019.0 1018.9 0.0
26/04:30pm 23.4 22.8 16.7 66 4.1 NE 15 24 8 13 1018.6 1018.5 0.0
26/04:00pm 23.8 22.8 16.6 64 4.4 NNE 17 26 9 14 1018.2 1018.1 0.0
26/03:30pm 24.1 22.6 16.4 62 4.7 NNE 19 30 10 16 1018.1 1018.0 0.0
26/03:00pm 24.8 23.8 16.5 60 5.1 NNE 17 26 9 14 1018.1 1018.0 0.0
26/02:30pm 24.7 23.2 16.7 61 4.9 NNE 20 28 11 15 1018.3 1018.2 0.0
26/02:00pm 25.1 24.1 16.5 59 5.3 NNE 17 24 9 13 1018.7 1018.6 0.0
26/01:30pm 25.4 24.7 16.5 58 5.5 NNE 15 24 8 13 1019.0 1018.9 0.0
26/01:00pm 26.0 25.5 16.0 54 6.1 NNE 13 22 7 12 1019.5 1019.4 0.0
26/12:30pm 25.6 25.6 16.2 56 5.8 ENE 11 19 6 10 1020.1 1020.0 0.0
26/12:00pm 25.2 25.1 16.1 57 5.5 NE 11 20 6 11 1020.5 1020.4 0.0
26/11:30am 25.3 24.9 16.2 57 5.6 NE 13 20 7 11 1020.9 1020.8 0.0
26/11:00am 25.5 26.1 16.9 59 5.3 N 9 17 5 9 1021.4 1021.3 0.0
26/10:30am 24.7 24.9 16.7 61 4.9 N 11 19 6 10 1021.8 1021.7 0.0
26/10:00am 24.9 25.4 16.6 60 5.1 NNE 9 17 5 9 1022.1 1022.0 0.0
26/09:30am 23.3 24.6 17.5 70 3.6 NNE 7 13 4 7 1022.3 1022.2 0.0
26/09:00am 23.1 24.1 17.8 72 3.3 N 9 13 5 7 1022.1 1022.0 0.0
26/08:30am 22.1 23.9 18.7 81 2.1 NNW 7 11 4 6 1021.9 1021.8 0.0
26/08:00am 20.5 23.8 19.0 91 0.9 CALM 0 0 0 0 1021.7 1021.6 0.0
26/07:30am 18.8 21.7 18.1 96 0.4 CALM 0 0 0 0 1021.4 1021.3 0.0
26/07:00am 17.1 19.4 16.8 98 0.2 CALM 0 0 0 0 1021.3 1021.2 0.0
26/06:30am 15.4 17.1 15.1 98 0.2 CALM 0 0 0 0 1020.8 1020.7 0.0
26/06:00am 14.8 16.2 14.3 97 0.3 CALM 0 0 0 0 1020.5 1020.4 0.0
26/05:30am 15.2 16.7 14.7 97 0.3 CALM 0 0 0 0 1020.4 1020.3 0.0
26/05:00am 15.2 16.7 14.6 96 0.3 CALM 0 0 0 0 1019.9 1019.8 0.0
26/04:30am 15.3 16.8 14.7 96 0.3 CALM 0 0 0 0 1019.5 1019.4 0.0
26/04:00am 15.9 17.3 15.4 97 0.3 SSE 2 7 1 4 1019.6 1019.5 0.0
26/03:30am 16.1 17.8 15.3 95 0.5 CALM 0 0 0 0 1019.6 1019.5 0.0
26/03:00am 16.6 18.6 16.1 97 0.3 CALM 0 0 0 0 1019.7 1019.6 0.0
26/02:30am 16.4 18.3 15.8 96 0.4 CALM 0 0 0 0 1019.6 1019.5 0.0
26/02:00am 16.4 18.2 15.6 95 0.5 CALM 0 0 0 0 1019.6 1019.5 0.0
26/01:30am 16.7 17.9 15.9 95 0.5 NE 4 7 2 4 1019.7 1019.6 0.0
26/01:00am 16.9 18.3 16.3 96 0.4 NE 4 7 2 4 1020.0 1019.9 0.0
26/12:30am 16.8 18.3 15.8 94 0.6 NNE 2 6 1 3 1020.5 1020.4 0.0
26/12:00am 17.0 19.0 16.0 94 0.6 CALM 0 0 0 0 1021.0 1020.9 0.0
 
Date/Time
EST
Temp
°C
App
Temp
°C
Dew
Point
Rel
Hum
%
Delta-T
°C
Wind Press
QNH
hPa
Press
MSL
hPa
Rain
since 9 am
mm
Dir
 
Spd
km/h
Gust
km/h
Spd
kts
Gust
kts
25/11:30pm 17.6 19.8 16.6 94 0.6 CALM 0 0 0 0 1021.2 1021.1 0.0
25/11:00pm 18.0 19.9 16.7 92 0.8 E 2 7 1 4 1021.3 1021.2 0.0
25/10:30pm 18.4 20.8 17.1 92 0.8 CALM 0 0 0 0 1021.0 1020.9 0.0
25/10:00pm 19.1 21.9 17.9 93 0.7 CALM 0 0 0 0 1020.9 1020.8 0.0
25/09:30pm 19.6 22.2 17.6 88 1.2 CALM 0 0 0 0 1020.7 1020.6 0.0
25/09:00pm 20.3 22.2 18.6 90 1.1 NNE 6 11 3 6 1020.5 1020.4 0.0
25/08:30pm 20.4 22.2 18.3 88 1.3 NE 6 7 3 4 1020.4 1020.3 0.0
25/08:00pm 20.8 22.5 18.6 87 1.4 NE 7 11 4 6 1020.2 1020.1 0.0
25/07:30pm 21.1 22.4 18.5 85 1.6 NE 9 13 5 7 1020.0 1019.9 0.0
25/07:00pm 21.3 22.6 18.5 84 1.7 NE 9 15 5 8 1019.6 1019.5 0.0
25/06:30pm 21.5 22.6 18.1 81 2.1 NE 9 17 5 9 1019.4 1019.3 0.0
25/06:00pm 22.1 23.0 17.5 75 2.8 NNE 9 15 5 8 1019.2 1019.1 0.0
25/05:30pm 22.8 22.7 17.0 70 3.6 NNE 13 20 7 11 1018.9 1018.8 0.0
25/05:00pm 23.5 23.2 16.5 65 4.3 NNE 13 24 7 13 1018.9 1018.8 0.0
25/04:30pm 24.4 23.8 16.6 61 4.8 NNE 15 20 8 11 1018.9 1018.8 0.0
25/04:00pm 24.9 24.4 15.8 57 5.5 NNE 13 22 7 12 1018.7 1018.6 0.0
25/03:30pm 25.2 23.9 15.8 56 5.7 NNE 17 22 9 12 1018.8 1018.7 0.0
25/03:00pm 25.5 24.4 15.2 53 6.2 NNE 15 24 8 13 1018.9 1018.8 0.0

Other Formats:

Comma delimited format used in spreadsheet applications
http://www.bom.gov.au/fwo/IDQ60801/IDQ60801.95370.axf

JavaScript Object Notation format (JSON) in row-major order
http://www.bom.gov.au/fwo/IDQ60801/IDQ60801.95370.json